createdAt,value
2022-10-06T00:04:52.414Z,99229.81
2022-10-06T00:09:57.397Z,99249.22
2022-10-06T00:15:02.334Z,99231.81
2022-10-06T00:20:13.312Z,99236.72
2022-10-06T00:25:21.128Z,99250.78
2022-10-06T00:30:27.870Z,99247.06
2022-10-06T00:35:36.924Z,99256.19
2022-10-06T00:40:47.108Z,99260.50
2022-10-06T00:45:52.222Z,99258.88
2022-10-06T00:51:01.876Z,99262.22
2022-10-06T00:56:06.707Z,99255.31
2022-10-06T01:01:14.369Z,99262.47
2022-10-06T01:06:22.259Z,99249.09
2022-10-06T01:11:27.293Z,99254.44
2022-10-06T01:16:34.582Z,99254.94
2022-10-06T01:21:47.495Z,99264.38
2022-10-06T01:26:56.919Z,99271.38
2022-10-06T01:32:02.506Z,99260.66
2022-10-06T01:37:07.626Z,99268.56
2022-10-06T01:42:16.197Z,99268.88
2022-10-06T01:47:21.140Z,99275.25
2022-10-06T01:52:26.337Z,99275.25
2022-10-06T01:57:33.738Z,99286.13
2022-10-06T02:02:40.227Z,99284.72
2022-10-06T02:07:45.017Z,99291.66
2022-10-06T02:12:58.302Z,99300.66
2022-10-06T02:18:05.288Z,99305.22
2022-10-06T02:23:10.201Z,99310.72
2022-10-06T02:28:17.623Z,99313.06
2022-10-06T02:33:22.648Z,99318.75
2022-10-06T02:38:28.190Z,99328.72
2022-10-06T02:43:37.178Z,99327.44
2022-10-06T02:48:43.388Z,99333.88
2022-10-06T02:53:50.463Z,99338.81
2022-10-06T02:58:58.447Z,99336.06
2022-10-06T03:04:11.766Z,99339.72
2022-10-06T03:09:18.904Z,99311.16
2022-10-06T03:14:26.369Z,99325.06
2022-10-06T03:19:31.427Z,99357.13
2022-10-06T03:24:37.317Z,99355.22
2022-10-06T03:29:46.132Z,99353.47
2022-10-06T03:34:53.403Z,99355.84
2022-10-06T03:39:58.723Z,99362.31
2022-10-06T03:45:06.763Z,99375.41
2022-10-06T03:50:12.766Z,99385.81
2022-10-06T03:55:17.692Z,99391.38
2022-10-06T04:00:25.406Z,99407.63
2022-10-06T04:05:30.389Z,99412.31
2022-10-06T04:10:36.478Z,99416.28
2022-10-06T04:15:44.085Z,99424.00
2022-10-06T04:20:49.363Z,99426.41
2022-10-06T04:26:00.796Z,99430.81
2022-10-06T04:31:10.464Z,99434.56
2022-10-06T04:36:17.752Z,99435.22
2022-10-06T04:41:23.236Z,99444.19
2022-10-06T04:46:42.633Z,99446.09
2022-10-06T04:51:49.851Z,99449.88
2022-10-06T04:56:56.814Z,99454.75
2022-10-06T05:02:07.078Z,99469.63
2022-10-06T05:07:12.148Z,99478.28
2022-10-06T05:12:17.130Z,99473.06
2022-10-06T05:17:27.223Z,99501.00
2022-10-06T05:22:32.694Z,99501.47
2022-10-06T05:27:37.804Z,99509.53
2022-10-06T05:32:50.573Z,99513.31
2022-10-06T05:37:57.512Z,99517.41
2022-10-06T05:43:03.125Z,99532.28
2022-10-06T05:48:11.836Z,99537.47
2022-10-06T05:53:17.109Z,99540.97
2022-10-06T05:58:21.993Z,99549.66
2022-10-06T06:03:29.607Z,99553.94
2022-10-06T06:08:34.823Z,99580.78
2022-10-06T06:13:39.967Z,99576.03
2022-10-06T06:18:53.227Z,99592.31
2022-10-06T06:24:01.012Z,99640.00
2022-10-06T06:29:07.542Z,99656.88
2022-10-06T06:34:20.871Z,99671.03
2022-10-06T06:39:29.326Z,99682.72
2022-10-06T06:44:40.935Z,99723.44
2022-10-06T06:50:03.084Z,99749.03
2022-10-06T06:55:09.480Z,99775.59
2022-10-06T07:00:16.857Z,99797.84
2022-10-06T07:05:26.073Z,99796.22
2022-10-06T07:10:35.523Z,99812.09
2022-10-06T07:15:53.575Z,99849.50
2022-10-06T07:21:14.958Z,99853.91
2022-10-06T07:26:20.051Z,99852.28
2022-10-06T07:31:27.441Z,99858.94
2022-10-06T07:36:37.810Z,99871.75
2022-10-06T07:41:43.938Z,99869.00
2022-10-06T07:46:55.064Z,99876.50
2022-10-06T07:52:16.599Z,99878.38
2022-10-06T07:57:25.024Z,99891.53
2022-10-06T08:02:33.138Z,99896.22
2022-10-06T08:07:44.317Z,99913.06
2022-10-06T08:12:50.402Z,99925.00
2022-10-06T08:17:57.717Z,99924.84
2022-10-06T08:23:15.968Z,99928.94
2022-10-06T08:28:22.477Z,99916.59
2022-10-06T08:33:30.154Z,99926.88
2022-10-06T08:38:38.904Z,99947.38
2022-10-06T08:43:45.057Z,99958.38
2022-10-06T08:48:49.972Z,99970.78
2022-10-06T08:54:05.507Z,99968.28
2022-10-06T08:59:12.193Z,99987.72
2022-10-06T09:04:26.556Z,99994.34
2022-10-06T09:10:00.064Z,99982.88
2022-10-06T09:15:19.372Z,99991.72
2022-10-06T09:20:32.068Z,100001.38
2022-10-06T09:25:41.195Z,99990.84
2022-10-06T09:30:47.030Z,100010.09
2022-10-06T09:36:10.613Z,100012.28
2022-10-06T09:41:19.279Z,100011.00
2022-10-06T09:46:31.496Z,100013.50
2022-10-06T09:51:38.183Z,100016.41
2022-10-06T09:56:47.858Z,100023.44
2022-10-06T10:01:59.923Z,100033.94
2022-10-06T10:07:19.256Z,100024.16
2022-10-06T10:12:34.379Z,100034.78
2022-10-06T10:17:50.882Z,100019.56
2022-10-06T10:23:00.001Z,100042.50
2022-10-06T10:28:19.219Z,100026.13
2022-10-06T10:33:33.523Z,100042.16
2022-10-06T10:38:43.030Z,100037.53
2022-10-06T10:43:59.618Z,100043.03
2022-10-06T10:49:15.549Z,100041.91
2022-10-06T10:54:25.217Z,100048.69
2022-10-06T10:59:38.329Z,100030.44
2022-10-06T11:04:49.664Z,100045.19
2022-10-06T11:10:01.478Z,100064.47
2022-10-06T11:15:18.601Z,100072.09
2022-10-06T11:20:41.804Z,100054.28
2022-10-06T11:25:56.779Z,100058.75
2022-10-06T11:31:16.565Z,100057.38
2022-10-06T11:36:34.754Z,100056.41
2022-10-06T11:41:45.524Z,100045.69
2022-10-06T11:46:59.828Z,100058.16
2022-10-06T11:52:47.349Z,100056.72
2022-10-06T11:58:42.400Z,100065.84
2022-10-06T12:04:06.446Z,100068.00
2022-10-06T12:09:31.301Z,100069.94
2022-10-06T12:20:21.766Z,100069.13
2022-10-06T12:25:34.375Z,100058.34
2022-10-06T12:31:00.266Z,100057.72
2022-10-06T12:36:18.777Z,100066.75
2022-10-06T12:41:53.820Z,100070.19
2022-10-06T12:47:04.190Z,100046.31
2022-10-06T12:52:40.274Z,100063.28
2022-10-06T12:57:49.642Z,100072.38
2022-10-06T13:02:58.560Z,100076.06
2022-10-06T13:08:08.105Z,100077.69
2022-10-06T13:13:25.481Z,100072.59
2022-10-06T13:18:32.612Z,100072.69
2022-10-06T13:23:43.899Z,100073.72
2022-10-06T13:28:52.083Z,100072.13
2022-10-06T13:34:01.186Z,100073.25
2022-10-06T13:39:09.621Z,100080.22
2022-10-06T13:44:32.732Z,100089.25
2022-10-06T13:49:43.767Z,100098.16
2022-10-06T13:54:56.009Z,100090.97
2022-10-06T14:00:18.260Z,100089.22
2022-10-06T14:05:30.503Z,100107.31
2022-10-06T14:10:49.575Z,100104.88
2022-10-06T14:15:57.462Z,100091.88
2022-10-06T14:21:18.788Z,100104.63
2022-10-06T14:26:27.719Z,100100.72
2022-10-06T14:31:34.406Z,100109.19
2022-10-06T14:36:40.156Z,100106.50
2022-10-06T14:41:48.382Z,100104.63
2022-10-06T14:46:54.101Z,100115.41
2022-10-06T14:51:59.189Z,100114.44
2022-10-06T14:57:07.236Z,100117.44
2022-10-06T15:02:14.452Z,100119.66
2022-10-06T15:07:31.656Z,100122.13
2022-10-06T15:12:39.078Z,100122.75
2022-10-06T15:17:43.897Z,100117.50
2022-10-06T15:22:49.128Z,100113.19
2022-10-06T15:28:09.273Z,100124.03
2022-10-06T15:33:14.275Z,100130.44
2022-10-06T15:38:19.557Z,100125.88
2022-10-06T15:43:46.997Z,100122.69
2022-10-06T15:48:52.439Z,100129.69
2022-10-06T15:53:58.450Z,100139.22
2022-10-06T15:59:06.030Z,100130.19
2022-10-06T16:04:24.201Z,100120.13
2022-10-06T16:09:30.745Z,100128.53
2022-10-06T16:14:38.842Z,100124.91
2022-10-06T16:19:44.422Z,100134.72
2022-10-06T16:24:49.235Z,100134.97
2022-10-06T16:29:57.153Z,100145.03
2022-10-06T16:35:02.225Z,100143.97
2022-10-06T16:40:07.985Z,100137.47
2022-10-06T16:45:16.152Z,100146.72
2022-10-06T16:50:21.101Z,100152.53
2022-10-06T16:55:26.148Z,100168.34
2022-10-06T17:00:33.708Z,100173.28
2022-10-06T17:05:39.662Z,100165.03
2022-10-06T17:10:44.710Z,100180.06
2022-10-06T17:16:00.241Z,100201.81
2022-10-06T17:21:32.144Z,100202.66
2022-10-06T17:26:37.851Z,100197.66
2022-10-06T17:31:46.384Z,100201.97
2022-10-06T17:36:53.474Z,100199.56
2022-10-06T17:41:58.448Z,100206.16
2022-10-06T17:47:05.821Z,100196.25
2022-10-06T17:52:10.976Z,100195.75
2022-10-06T17:57:16.378Z,100199.78
2022-10-06T18:02:23.973Z,100202.09
2022-10-06T18:07:28.738Z,100205.25
2022-10-06T18:12:36.259Z,100199.44
2022-10-06T18:17:44.287Z,100200.66
2022-10-06T18:22:49.287Z,100201.19
2022-10-06T18:27:54.269Z,100204.22
2022-10-06T18:38:27.960Z,100181.88
2022-10-06T18:43:33.333Z,100201.16
2022-10-06T18:48:58.935Z,100212.91
2022-10-06T18:54:07.179Z,100200.91
2022-10-06T18:59:14.650Z,100217.44
2022-10-06T19:04:23.895Z,100223.22
2022-10-06T19:09:28.688Z,100208.38
2022-10-06T19:14:36.778Z,100218.72
2022-10-06T19:19:48.217Z,100218.69
2022-10-06T19:24:54.042Z,100224.31
2022-10-06T19:29:59.248Z,100229.28
2022-10-06T19:35:10.291Z,100224.53
2022-10-06T19:40:15.970Z,100225.84
2022-10-06T19:45:21.353Z,100226.69
2022-10-06T19:50:30.510Z,100220.56
2022-10-06T19:55:35.621Z,100222.66
2022-10-06T20:00:41.456Z,100229.16
2022-10-06T20:05:49.032Z,100233.31
2022-10-06T20:10:54.045Z,100243.59
2022-10-06T20:15:58.996Z,100249.31
2022-10-06T20:21:06.942Z,100239.81
2022-10-06T20:26:15.709Z,100234.22
2022-10-06T20:31:23.157Z,100239.34
2022-10-06T20:36:32.359Z,100242.19
2022-10-06T20:41:40.666Z,100245.00
2022-10-06T20:46:45.453Z,100249.38
2022-10-06T20:51:53.186Z,100247.75
2022-10-06T20:56:58.709Z,100238.66
2022-10-06T21:02:03.580Z,100238.41
2022-10-06T21:07:11.297Z,100238.19
2022-10-06T21:12:16.592Z,100224.69
2022-10-06T21:17:22.065Z,100230.31
2022-10-06T21:22:31.306Z,100229.81
2022-10-06T21:27:36.312Z,100228.44
2022-10-06T21:32:42.586Z,100215.25
2022-10-06T21:37:50.347Z,100211.97
2022-10-06T21:42:55.221Z,100213.56
2022-10-06T21:48:00.285Z,100212.81
2022-10-06T21:53:07.756Z,100216.56
2022-10-06T21:58:12.758Z,100215.31
2022-10-06T22:03:17.649Z,100216.63
2022-10-06T22:08:25.398Z,100216.47
2022-10-06T22:13:31.398Z,100212.56
2022-10-06T22:18:36.661Z,100210.47
2022-10-06T22:23:45.296Z,100210.84
2022-10-06T22:28:51.599Z,100210.59
2022-10-06T22:33:58.582Z,100211.19
2022-10-06T22:39:06.601Z,100207.47
2022-10-06T22:44:11.633Z,100199.72
2022-10-06T22:49:16.410Z,100197.84
2022-10-06T22:54:27.771Z,100198.22
2022-10-06T22:59:32.960Z,100190.38
2022-10-06T23:04:37.905Z,100190.25
2022-10-06T23:09:45.479Z,100186.47
2022-10-06T23:14:50.696Z,100186.69
2022-10-06T23:19:55.653Z,100188.25
2022-10-06T23:25:03.382Z,100191.84
2022-10-06T23:30:10.316Z,100182.78
2022-10-06T23:35:15.695Z,100188.81
2022-10-06T23:40:23.309Z,100189.63
2022-10-06T23:45:28.514Z,100196.06
2022-10-06T23:50:33.441Z,100190.13
2022-10-06T23:55:41.395Z,100181.59
